createdAt,value
2022-12-23T00:01:38.797Z,17.80
2022-12-23T00:04:07.957Z,17.80
2022-12-23T00:06:36.975Z,17.90
2022-12-23T00:09:06.004Z,17.90
2022-12-23T00:11:34.956Z,17.90
2022-12-23T00:14:22.406Z,17.90
2022-12-23T00:16:52.519Z,17.90
2022-12-23T00:19:21.590Z,18.00
2022-12-23T00:21:50.576Z,18.00
2022-12-23T00:24:19.534Z,18.00
2022-12-23T00:26:48.741Z,18.10
2022-12-23T00:29:17.643Z,18.10
2022-12-23T00:31:46.683Z,18.20
2022-12-23T00:34:18.983Z,18.30
2022-12-23T00:36:47.935Z,18.40
2022-12-23T00:39:35.331Z,18.50
2022-12-23T00:42:22.686Z,18.60
2022-12-23T00:44:51.731Z,18.60
2022-12-23T00:47:55.774Z,18.70
2022-12-23T00:50:24.784Z,18.80
2022-12-23T00:52:53.766Z,19.00
2022-12-23T00:55:23.075Z,19.10
2022-12-23T00:57:52.149Z,19.10
2022-12-23T01:00:21.601Z,19.20
2022-12-23T01:03:08.632Z,19.40
2022-12-23T01:05:38.255Z,19.50
2022-12-23T01:08:09.357Z,19.50
2022-12-23T01:10:39.753Z,19.70
2022-12-23T01:13:09.186Z,19.80
2022-12-23T01:15:38.129Z,19.90
2022-12-23T01:18:07.181Z,20.00
2022-12-23T01:20:36.168Z,20.10
2022-12-23T01:23:05.128Z,20.20
2022-12-23T01:25:34.832Z,20.30
2022-12-23T01:28:05.025Z,20.40
2022-12-23T01:30:33.992Z,20.60
2022-12-23T01:33:02.904Z,20.80
2022-12-23T01:35:31.871Z,20.90
2022-12-23T01:38:03.403Z,21.10
2022-12-23T01:40:41.059Z,21.20
2022-12-23T01:43:18.988Z,21.30
2022-12-23T01:45:48.634Z,21.50
2022-12-23T01:48:21.070Z,21.60
2022-12-23T01:50:57.262Z,21.70
2022-12-23T01:53:36.087Z,21.80
2022-12-23T01:56:37.023Z,21.90
2022-12-23T01:59:38.567Z,22.10
2022-12-23T02:02:25.867Z,22.20
2022-12-23T02:04:56.106Z,22.30
2022-12-23T02:07:43.018Z,22.50
2022-12-23T02:10:13.939Z,22.70
2022-12-23T02:13:07.081Z,22.80
2022-12-23T02:16:02.945Z,22.90
2022-12-23T02:18:44.363Z,22.90
2022-12-23T02:21:26.504Z,23.00
2022-12-23T02:23:55.628Z,23.10
2022-12-23T02:26:58.290Z,23.20
2022-12-23T02:30:03.045Z,23.30
2022-12-23T02:32:38.351Z,23.40
2022-12-23T02:35:24.283Z,23.50
2022-12-23T02:38:26.444Z,23.60
2022-12-23T02:41:03.097Z,23.70
2022-12-23T02:43:45.269Z,23.90
2022-12-23T02:46:32.790Z,24.00
2022-12-23T02:49:16.153Z,24.20
2022-12-23T02:51:52.873Z,24.30
2022-12-23T02:54:45.653Z,24.40
2022-12-23T02:57:18.850Z,24.60
2022-12-23T02:59:51.028Z,24.60
2022-12-23T03:02:21.381Z,24.70
2022-12-23T03:05:03.327Z,24.80
2022-12-23T03:07:43.605Z,25.00
2022-12-23T03:10:28.498Z,25.10
2022-12-23T03:13:19.705Z,25.30
2022-12-23T03:16:24.399Z,25.30
2022-12-23T03:19:26.639Z,25.40
2022-12-23T03:22:09.949Z,25.50
2022-12-23T03:24:49.307Z,25.60
2022-12-23T03:27:42.736Z,25.70
2022-12-23T03:30:22.478Z,25.80
2022-12-23T03:33:16.878Z,25.80
2022-12-23T03:35:53.374Z,25.90
2022-12-23T03:38:24.730Z,25.90
2022-12-23T03:41:02.126Z,26.00
2022-12-23T03:43:50.694Z,26.10
2022-12-23T03:46:42.786Z,26.10
2022-12-23T03:49:18.671Z,26.20
2022-12-23T03:51:57.661Z,26.40
2022-12-23T03:54:34.061Z,26.40
2022-12-23T03:57:06.323Z,26.50
2022-12-23T03:59:40.542Z,26.40
2022-12-23T04:02:57.721Z,26.40
2022-12-23T04:05:35.398Z,26.40
2022-12-23T04:08:09.245Z,26.40
2022-12-23T04:10:38.688Z,26.50
2022-12-23T04:13:08.039Z,26.50
2022-12-23T04:15:42.580Z,26.50
2022-12-23T04:18:12.815Z,26.50
2022-12-23T04:20:41.920Z,26.50
2022-12-23T04:23:10.959Z,26.60
2022-12-23T04:25:39.949Z,26.70
2022-12-23T04:28:08.932Z,26.80
2022-12-23T04:30:39.989Z,27.00
2022-12-23T04:33:09.089Z,27.00
2022-12-23T04:35:38.060Z,27.10
2022-12-23T04:38:09.100Z,27.20
2022-12-23T04:40:38.247Z,27.30
2022-12-23T04:43:07.276Z,27.40
2022-12-23T04:45:36.306Z,27.40
2022-12-23T04:48:05.376Z,27.40
2022-12-23T04:50:34.677Z,27.60
2022-12-23T04:53:08.024Z,27.60
2022-12-23T04:55:47.067Z,27.60
2022-12-23T04:58:16.236Z,27.60
2022-12-23T05:00:45.242Z,27.60
2022-12-23T05:03:14.328Z,27.60
2022-12-23T05:05:46.497Z,27.60
2022-12-23T05:08:16.013Z,27.60
2022-12-23T05:10:47.111Z,27.60
2022-12-23T05:13:16.171Z,27.60
2022-12-23T05:16:02.987Z,27.60
2022-12-23T05:18:32.697Z,27.70
2022-12-23T05:21:01.658Z,27.70
2022-12-23T05:23:30.705Z,27.80
2022-12-23T05:25:59.762Z,27.90
2022-12-23T05:28:28.935Z,27.90
2022-12-23T05:31:02.685Z,28.00
2022-12-23T05:33:35.365Z,28.10
2022-12-23T05:36:04.963Z,28.10
2022-12-23T05:38:33.916Z,28.20
2022-12-23T05:41:03.471Z,28.30
2022-12-23T05:43:32.772Z,28.30
2022-12-23T05:46:01.929Z,28.30
2022-12-23T05:48:30.962Z,28.40
2022-12-23T05:51:00.006Z,28.40
2022-12-23T05:53:29.089Z,28.40
2022-12-23T05:56:05.096Z,28.40
2022-12-23T05:58:37.555Z,28.50
2022-12-23T06:01:06.772Z,28.60
2022-12-23T06:03:35.893Z,28.60
2022-12-23T06:06:05.295Z,28.60
2022-12-23T06:08:34.239Z,28.70
2022-12-23T06:11:06.948Z,28.80
2022-12-23T06:13:35.912Z,28.80
2022-12-23T06:16:05.010Z,28.80
2022-12-23T06:18:33.994Z,28.70
2022-12-23T06:21:02.930Z,28.70
2022-12-23T06:23:31.880Z,28.60
2022-12-23T06:26:02.559Z,28.70
2022-12-23T06:28:31.894Z,28.80
2022-12-23T06:31:01.058Z,28.80
2022-12-23T06:33:30.236Z,28.90
2022-12-23T06:35:59.324Z,29.00
2022-12-23T06:38:28.401Z,29.00
2022-12-23T06:40:57.465Z,29.00
2022-12-23T06:43:26.443Z,29.00
2022-12-23T06:45:55.642Z,29.10
2022-12-23T06:48:24.654Z,29.10
2022-12-23T06:50:53.875Z,29.10
2022-12-23T06:53:23.031Z,29.20
2022-12-23T06:55:52.015Z,29.30
2022-12-23T06:58:20.973Z,29.40
2022-12-23T07:00:49.955Z,29.50
2022-12-23T07:03:19.093Z,29.60
2022-12-23T07:05:54.435Z,29.60
2022-12-23T07:08:23.590Z,29.50
2022-12-23T07:10:52.585Z,29.50
2022-12-23T07:13:21.527Z,29.50
2022-12-23T07:15:50.601Z,29.50
2022-12-23T07:18:19.559Z,29.40
2022-12-23T07:20:50.908Z,29.50
2022-12-23T07:23:20.357Z,29.60
2022-12-23T07:25:49.321Z,29.50
2022-12-23T07:28:18.505Z,29.60
2022-12-23T07:30:47.628Z,29.70
2022-12-23T07:33:17.030Z,29.70
2022-12-23T07:38:28.433Z,30.00
2022-12-23T07:40:57.469Z,30.00
2022-12-23T07:43:26.468Z,30.10
2022-12-23T07:45:59.953Z,30.20
2022-12-23T07:48:29.518Z,30.20
2022-12-23T07:51:05.682Z,30.20
2022-12-23T07:53:34.690Z,30.30
2022-12-23T07:56:03.834Z,30.30
2022-12-23T07:58:32.851Z,30.30
2022-12-23T08:01:09.428Z,30.40
2022-12-23T08:03:40.783Z,30.40
2022-12-23T08:06:13.784Z,30.50
2022-12-23T08:08:47.837Z,30.50
2022-12-23T08:11:17.553Z,30.50
2022-12-23T08:13:49.322Z,30.40
2022-12-23T08:16:18.739Z,30.40
2022-12-23T08:18:47.735Z,30.40
2022-12-23T08:21:20.508Z,30.40
2022-12-23T08:23:50.288Z,30.30
2022-12-23T08:26:26.185Z,30.00
2022-12-23T08:28:55.344Z,29.80
2022-12-23T08:31:26.917Z,29.60
2022-12-23T08:34:00.579Z,29.50
2022-12-23T08:36:36.534Z,29.50
2022-12-23T08:39:09.237Z,29.50
2022-12-23T08:41:45.719Z,29.50
2022-12-23T08:44:16.145Z,29.60
2022-12-23T08:46:45.698Z,29.60
2022-12-23T08:49:14.786Z,29.70
2022-12-23T08:51:43.935Z,29.70
2022-12-23T08:54:13.014Z,29.70
2022-12-23T08:56:43.312Z,29.70
2022-12-23T08:59:19.668Z,29.70
2022-12-23T09:01:49.805Z,29.70
2022-12-23T09:04:19.139Z,29.70
2022-12-23T09:06:48.188Z,29.70
2022-12-23T09:09:17.552Z,29.60
2022-12-23T09:11:46.554Z,29.50
2022-12-23T09:14:15.879Z,29.50
2022-12-23T09:16:44.996Z,29.50
2022-12-23T09:19:14.246Z,29.40
2022-12-23T09:21:43.313Z,29.40
2022-12-23T09:24:12.325Z,29.30
2022-12-23T09:26:41.433Z,29.20
2022-12-23T09:29:10.403Z,29.10
2022-12-23T09:34:36.022Z,28.90
2022-12-23T09:37:05.422Z,28.80
2022-12-23T09:39:34.511Z,28.80
2022-12-23T09:42:24.639Z,28.70
2022-12-23T09:45:05.838Z,28.70
2022-12-23T09:47:36.361Z,28.60
2022-12-23T09:50:22.707Z,28.50
2022-12-23T09:52:57.951Z,28.40
2022-12-23T09:55:35.293Z,28.30
2022-12-23T09:58:18.698Z,28.20
2022-12-23T10:01:14.621Z,28.20
2022-12-23T10:04:17.373Z,28.10
2022-12-23T10:06:55.073Z,28.00
2022-12-23T10:09:25.438Z,27.90
2022-12-23T10:11:54.638Z,27.80
2022-12-23T10:14:31.133Z,27.80
2022-12-23T10:17:06.538Z,27.70
2022-12-23T10:19:48.320Z,27.60
2022-12-23T10:22:34.299Z,27.60
2022-12-23T10:25:30.267Z,27.50
2022-12-23T10:27:59.249Z,27.40
2022-12-23T10:30:57.189Z,27.40
2022-12-23T10:33:43.678Z,27.30
2022-12-23T10:36:46.795Z,27.20
2022-12-23T10:39:37.708Z,27.10
2022-12-23T10:42:34.203Z,27.10
2022-12-23T10:45:17.689Z,27.00
2022-12-23T10:48:16.078Z,26.90
2022-12-23T10:51:02.544Z,26.90
2022-12-23T10:54:24.829Z,26.80
2022-12-23T10:56:54.823Z,26.60
2022-12-23T10:59:35.872Z,26.60
2022-12-23T11:02:15.023Z,26.50
2022-12-23T11:04:49.975Z,26.50
2022-12-23T11:10:22.209Z,26.30
2022-12-23T11:12:54.046Z,26.30
2022-12-23T11:15:42.862Z,26.10
2022-12-23T11:18:14.624Z,26.10
2022-12-23T11:20:46.301Z,26.00
2022-12-23T11:23:47.737Z,25.90
2022-12-23T11:26:21.558Z,25.80
2022-12-23T11:28:53.768Z,25.80
2022-12-23T11:31:36.721Z,25.70
2022-12-23T11:34:17.762Z,25.60
2022-12-23T11:37:07.744Z,25.60
2022-12-23T11:39:39.119Z,25.50
2022-12-23T11:42:17.442Z,25.50
2022-12-23T11:44:50.218Z,25.40
2022-12-23T11:47:25.411Z,25.40
2022-12-23T11:49:56.868Z,25.30
2022-12-23T11:52:30.072Z,25.20
2022-12-23T11:55:05.289Z,25.20
2022-12-23T11:57:42.028Z,25.10
2022-12-23T12:00:22.285Z,25.10
2022-12-23T12:02:55.511Z,25.00
2022-12-23T12:05:38.695Z,25.00
2022-12-23T12:08:12.574Z,24.90
2022-12-23T12:10:43.564Z,24.90
2022-12-23T12:13:43.184Z,24.80
2022-12-23T12:16:36.443Z,24.80
2022-12-23T12:19:28.319Z,24.70
2022-12-23T12:22:02.372Z,24.70
2022-12-23T12:24:33.445Z,24.70
2022-12-23T12:27:08.721Z,24.60
2022-12-23T12:29:49.916Z,24.60
2022-12-23T12:32:40.043Z,24.50
2022-12-23T12:35:16.058Z,24.40
2022-12-23T12:37:58.376Z,24.30
2022-12-23T12:40:59.431Z,24.30
2022-12-23T12:43:39.460Z,24.20
2022-12-23T12:46:17.497Z,24.20
2022-12-23T12:48:55.461Z,24.20
2022-12-23T12:51:39.495Z,24.10
2022-12-23T12:54:52.319Z,24.10
2022-12-23T12:57:24.019Z,24.00
2022-12-23T13:00:03.650Z,23.90
2022-12-23T13:02:56.343Z,23.90
2022-12-23T13:06:03.108Z,23.90
2022-12-23T13:08:57.373Z,23.80
2022-12-23T13:11:52.172Z,23.80
2022-12-23T13:15:05.858Z,23.70
2022-12-23T13:17:46.916Z,23.70
2022-12-23T13:20:35.158Z,23.60
2022-12-23T13:23:43.550Z,23.60
2022-12-23T13:26:37.031Z,23.60
2022-12-23T13:29:31.709Z,23.50
2022-12-23T13:32:09.587Z,23.50
2022-12-23T13:35:16.943Z,23.40
2022-12-23T13:38:07.543Z,23.40
2022-12-23T13:40:48.878Z,23.40
2022-12-23T13:43:25.305Z,23.30
2022-12-23T13:45:56.248Z,23.30
2022-12-23T13:48:37.707Z,23.30
2022-12-23T13:51:09.707Z,23.30
2022-12-23T13:53:41.777Z,23.30
2022-12-23T13:59:12.688Z,23.20
2022-12-23T14:02:02.429Z,23.20
2022-12-23T14:04:58.083Z,23.20
2022-12-23T14:07:30.221Z,23.10
2022-12-23T14:10:11.754Z,23.10
2022-12-23T14:12:43.691Z,23.00
2022-12-23T14:15:27.880Z,23.00
2022-12-23T14:18:08.638Z,23.00
2022-12-23T14:20:56.431Z,22.90
2022-12-23T14:23:51.626Z,22.90
2022-12-23T14:26:42.087Z,22.90
2022-12-23T14:29:44.710Z,22.80
2022-12-23T14:32:24.968Z,22.80
2022-12-23T14:35:19.969Z,22.80
2022-12-23T14:38:17.178Z,22.70
2022-12-23T14:41:04.863Z,22.70
2022-12-23T14:43:56.891Z,22.70
2022-12-23T14:46:37.999Z,22.70
2022-12-23T14:49:40.155Z,22.60
2022-12-23T14:52:44.309Z,22.60
2022-12-23T14:55:32.342Z,22.60
2022-12-23T14:58:18.864Z,22.50
2022-12-23T15:01:21.334Z,22.50
2022-12-23T15:03:59.293Z,22.50
2022-12-23T15:06:34.574Z,22.50
2022-12-23T15:09:04.182Z,22.40
2022-12-23T15:11:36.230Z,22.40
2022-12-23T15:14:11.954Z,22.40
2022-12-23T15:16:45.854Z,22.40
2022-12-23T15:19:21.157Z,22.40
2022-12-23T15:22:04.022Z,22.40
2022-12-23T15:24:43.707Z,22.30
2022-12-23T15:27:27.406Z,22.30
2022-12-23T15:29:57.338Z,22.30
2022-12-23T15:32:27.953Z,22.30
2022-12-23T15:35:06.788Z,22.20
2022-12-23T15:37:36.499Z,22.20
2022-12-23T15:40:12.641Z,22.20
2022-12-23T15:42:50.106Z,22.10
2022-12-23T15:45:38.833Z,22.10
2022-12-23T15:48:26.561Z,22.10
2022-12-23T15:50:59.455Z,22.10
2022-12-23T15:53:35.812Z,22.00
2022-12-23T15:56:08.646Z,22.00
2022-12-23T15:58:41.652Z,22.10
2022-12-23T16:01:19.161Z,22.00
2022-12-23T16:04:02.228Z,22.00
2022-12-23T16:06:40.077Z,22.00
2022-12-23T16:09:18.307Z,22.00
2022-12-23T16:12:01.568Z,21.90
2022-12-23T16:14:38.264Z,21.90
2022-12-23T16:17:10.305Z,21.90
2022-12-23T16:19:49.854Z,21.90
2022-12-23T16:22:34.764Z,21.90
2022-12-23T16:25:34.527Z,21.80
2022-12-23T16:28:19.162Z,21.80
2022-12-23T16:30:50.657Z,21.80
2022-12-23T16:33:28.776Z,21.80
2022-12-23T16:35:59.046Z,21.70
2022-12-23T16:38:28.715Z,21.70
2022-12-23T16:43:52.320Z,21.70
2022-12-23T16:46:24.804Z,21.70
2022-12-23T16:51:24.501Z,21.60
2022-12-23T16:53:59.032Z,21.60
2022-12-23T16:56:35.388Z,21.60
2022-12-23T16:59:05.140Z,21.50
2022-12-23T17:01:37.817Z,21.50
2022-12-23T17:04:10.738Z,21.40
2022-12-23T17:06:39.764Z,21.40
2022-12-23T17:09:09.953Z,21.40
2022-12-23T17:11:49.218Z,21.40
2022-12-23T17:14:26.860Z,21.30
2022-12-23T17:16:56.139Z,21.30
2022-12-23T17:19:29.388Z,21.30
2022-12-23T17:22:03.532Z,21.20
2022-12-23T17:24:35.126Z,21.20
2022-12-23T17:27:06.689Z,21.20
2022-12-23T17:29:35.659Z,21.20
2022-12-23T17:32:04.848Z,21.10
2022-12-23T17:34:34.531Z,21.00
2022-12-23T17:37:03.654Z,21.00
2022-12-23T17:39:32.754Z,21.00
2022-12-23T17:42:01.779Z,21.00
2022-12-23T17:44:30.775Z,21.00
2022-12-23T17:47:00.519Z,20.90
2022-12-23T17:49:29.580Z,20.90
2022-12-23T17:51:58.790Z,20.80
2022-12-23T17:54:28.615Z,20.80
2022-12-23T17:56:58.768Z,20.80
2022-12-23T17:59:27.844Z,20.70
2022-12-23T18:01:56.960Z,20.70
2022-12-23T18:04:25.972Z,20.70
2022-12-23T18:06:54.921Z,20.60
2022-12-23T18:09:24.410Z,20.60
2022-12-23T18:11:53.460Z,20.60
2022-12-23T18:14:30.381Z,20.50
2022-12-23T18:17:00.113Z,20.50
2022-12-23T18:19:29.288Z,20.40
2022-12-23T18:21:58.600Z,20.40
2022-12-23T18:24:28.285Z,20.40
2022-12-23T18:26:57.289Z,20.30
2022-12-23T18:29:26.346Z,20.30
2022-12-23T18:31:55.610Z,20.30
2022-12-23T18:34:24.611Z,20.30
2022-12-23T18:36:53.707Z,20.20
2022-12-23T18:39:22.839Z,20.20
2022-12-23T18:41:51.907Z,20.20
2022-12-23T18:44:22.071Z,20.20
2022-12-23T18:46:51.566Z,20.10
2022-12-23T18:49:20.878Z,20.10
2022-12-23T18:51:49.984Z,20.10
2022-12-23T18:54:19.034Z,20.00
2022-12-23T18:56:48.802Z,20.00
2022-12-23T18:59:29.573Z,20.00
2022-12-23T19:01:59.990Z,20.00
2022-12-23T19:04:29.642Z,19.90
2022-12-23T19:06:58.952Z,19.90
2022-12-23T19:09:28.143Z,19.90
2022-12-23T19:11:57.121Z,19.90
2022-12-23T19:14:26.137Z,19.90
2022-12-23T19:16:55.251Z,19.80
2022-12-23T19:19:24.238Z,19.80
2022-12-23T19:21:53.289Z,19.80
2022-12-23T19:24:22.307Z,19.70
2022-12-23T19:26:51.324Z,19.70
2022-12-23T19:29:20.301Z,19.70
2022-12-23T19:31:49.319Z,19.60
2022-12-23T19:34:18.359Z,19.60
2022-12-23T19:36:47.453Z,19.60
2022-12-23T19:39:18.068Z,19.60
2022-12-23T19:41:47.653Z,19.60
2022-12-23T19:44:16.909Z,19.60
2022-12-23T19:46:46.022Z,19.60
2022-12-23T19:49:19.800Z,19.60
2022-12-23T19:51:49.029Z,19.60
2022-12-23T19:54:18.668Z,19.50
2022-12-23T19:56:50.735Z,19.50
2022-12-23T19:59:20.449Z,19.50
2022-12-23T20:01:49.772Z,19.50
2022-12-23T20:04:19.076Z,19.50
2022-12-23T20:06:48.039Z,19.50
2022-12-23T20:09:17.023Z,19.50
2022-12-23T20:11:50.304Z,19.50
2022-12-23T20:14:20.480Z,19.50
2022-12-23T20:16:50.457Z,19.50
2022-12-23T20:19:19.998Z,19.40
2022-12-23T20:21:49.246Z,19.40
2022-12-23T20:24:18.282Z,19.40
2022-12-23T20:26:47.290Z,19.40
2022-12-23T20:29:16.634Z,19.40
2022-12-23T20:31:45.742Z,19.40
2022-12-23T20:34:19.211Z,19.40
2022-12-23T20:36:48.283Z,19.40
2022-12-23T20:39:17.470Z,19.40
2022-12-23T20:41:46.520Z,19.40
2022-12-23T20:47:05.535Z,19.40
2022-12-23T20:49:34.847Z,19.40
2022-12-23T20:52:04.415Z,19.30
2022-12-23T20:54:34.104Z,19.30
2022-12-23T20:57:03.965Z,19.40
2022-12-23T20:59:34.164Z,19.30
2022-12-23T21:02:03.676Z,19.30
2022-12-23T21:04:32.764Z,19.40
2022-12-23T21:07:01.807Z,19.30
2022-12-23T21:09:30.874Z,19.30
2022-12-23T21:12:00.160Z,19.30
2022-12-23T21:14:29.324Z,19.30
2022-12-23T21:16:58.355Z,19.30
2022-12-23T21:19:29.155Z,19.30
2022-12-23T21:21:59.050Z,19.30
2022-12-23T21:24:28.069Z,19.30
2022-12-23T21:26:57.415Z,19.30
2022-12-23T21:29:27.128Z,19.20
2022-12-23T21:31:56.456Z,19.20
2022-12-23T21:34:25.669Z,19.20
2022-12-23T21:36:54.728Z,19.20
2022-12-23T21:39:23.784Z,19.20
2022-12-23T21:41:53.808Z,19.20
2022-12-23T21:44:22.867Z,19.20
2022-12-23T21:46:53.097Z,19.20
2022-12-23T21:49:22.438Z,19.10
2022-12-23T21:51:51.663Z,19.10
2022-12-23T21:54:20.804Z,19.10
2022-12-23T21:56:49.837Z,19.10
2022-12-23T21:59:18.835Z,19.10
2022-12-23T22:01:47.917Z,19.10
2022-12-23T22:04:16.943Z,19.10
2022-12-23T22:06:46.813Z,19.10
2022-12-23T22:09:18.975Z,19.00
2022-12-23T22:11:49.117Z,19.10
2022-12-23T22:14:20.389Z,19.10
2022-12-23T22:16:49.436Z,19.10
2022-12-23T22:19:18.654Z,19.10
2022-12-23T22:21:47.764Z,19.10
2022-12-23T22:24:16.993Z,19.10
2022-12-23T22:26:46.020Z,19.00
2022-12-23T22:29:15.132Z,19.00
2022-12-23T22:31:56.025Z,19.00
2022-12-23T22:34:25.229Z,19.00
2022-12-23T22:36:54.271Z,19.00
2022-12-23T22:39:23.825Z,19.00
2022-12-23T22:41:53.894Z,19.00
2022-12-23T22:44:23.161Z,19.00
2022-12-23T22:46:52.296Z,19.00
2022-12-23T22:49:26.242Z,19.00
2022-12-23T22:51:55.393Z,19.00
2022-12-23T22:54:24.363Z,19.00
2022-12-23T22:56:53.367Z,19.00
2022-12-23T22:59:24.754Z,19.00
2022-12-23T23:01:54.870Z,18.90
2022-12-23T23:04:24.210Z,19.00
2022-12-23T23:06:53.296Z,18.90
2022-12-23T23:09:23.464Z,18.90
2022-12-23T23:11:53.180Z,18.90
2022-12-23T23:14:22.665Z,18.90
2022-12-23T23:19:40.448Z,18.80
2022-12-23T23:22:09.742Z,18.80
2022-12-23T23:24:38.840Z,18.80
2022-12-23T23:27:08.047Z,18.80
2022-12-23T23:29:37.128Z,18.80
2022-12-23T23:32:07.327Z,18.70
2022-12-23T23:34:38.063Z,18.80
2022-12-23T23:37:12.899Z,18.70
2022-12-23T23:39:45.049Z,18.70
2022-12-23T23:42:14.288Z,18.70
2022-12-23T23:44:43.373Z,18.70
2022-12-23T23:47:13.597Z,18.70
2022-12-23T23:49:42.622Z,18.70
2022-12-23T23:52:11.594Z,18.70
2022-12-23T23:54:40.631Z,18.70
2022-12-23T23:57:09.737Z,18.80
2022-12-23T23:59:38.747Z,18.80
